sensor_id;sensor_type;location;lat;lon;timestamp;P1;durP1;ratioP1;P2;durP2;ratioP2
18931;SDS011;9598;50.954;3.112;2024-01-06T00:03:22;3.28;;;1.48;;
18931;SDS011;9598;50.954;3.112;2024-01-06T00:08:26;4.60;;;1.35;;
18931;SDS011;9598;50.954;3.112;2024-01-06T00:13:28;2.67;;;1.40;;
18931;SDS011;9598;50.954;3.112;2024-01-06T00:18:30;3.28;;;1.33;;
18931;SDS011;9598;50.954;3.112;2024-01-06T00:23:33;3.75;;;1.30;;
18931;SDS011;9598;50.954;3.112;2024-01-06T00:28:35;5.05;;;1.95;;
18931;SDS011;9598;50.954;3.112;2024-01-06T00:33:38;2.55;;;1.52;;
18931;SDS011;9598;50.954;3.112;2024-01-06T00:38:42;1.42;;;1.20;;
18931;SDS011;9598;50.954;3.112;2024-01-06T00:43:44;9.25;;;1.45;;
18931;SDS011;9598;50.954;3.112;2024-01-06T00:48:46;2.72;;;0.90;;
18931;SDS011;9598;50.954;3.112;2024-01-06T00:53:49;4.05;;;1.70;;
18931;SDS011;9598;50.954;3.112;2024-01-06T00:58:51;1.92;;;1.10;;
18931;SDS011;9598;50.954;3.112;2024-01-06T01:03:53;2.78;;;1.00;;
18931;SDS011;9598;50.954;3.112;2024-01-06T01:08:57;2.78;;;1.20;;
18931;SDS011;9598;50.954;3.112;2024-01-06T01:13:59;5.47;;;1.10;;
18931;SDS011;9598;50.954;3.112;2024-01-06T01:19:01;4.00;;;0.88;;
18931;SDS011;9598;50.954;3.112;2024-01-06T01:24:05;3.05;;;1.20;;
18931;SDS011;9598;50.954;3.112;2024-01-06T01:29:07;3.22;;;1.20;;
18931;SDS011;9598;50.954;3.112;2024-01-06T01:34:09;4.25;;;1.20;;
18931;SDS011;9598;50.954;3.112;2024-01-06T01:39:13;4.18;;;1.13;;
18931;SDS011;9598;50.954;3.112;2024-01-06T01:44:15;2.90;;;1.40;;
18931;SDS011;9598;50.954;3.112;2024-01-06T01:49:17;2.38;;;1.08;;
18931;SDS011;9598;50.954;3.112;2024-01-06T01:54:21;2.95;;;1.50;;
18931;SDS011;9598;50.954;3.112;2024-01-06T01:59:23;4.07;;;1.50;;
18931;SDS011;9598;50.954;3.112;2024-01-06T02:04:25;6.82;;;1.55;;
18931;SDS011;9598;50.954;3.112;2024-01-06T02:09:29;7.55;;;1.55;;
18931;SDS011;9598;50.954;3.112;2024-01-06T02:14:31;3.47;;;1.25;;
18931;SDS011;9598;50.954;3.112;2024-01-06T02:19:33;5.80;;;1.25;;
18931;SDS011;9598;50.954;3.112;2024-01-06T02:24:37;4.40;;;1.42;;
18931;SDS011;9598;50.954;3.112;2024-01-06T02:29:39;4.13;;;1.92;;
18931;SDS011;9598;50.954;3.112;2024-01-06T02:34:41;3.38;;;1.58;;
18931;SDS011;9598;50.954;3.112;2024-01-06T02:39:44;5.07;;;1.50;;
18931;SDS011;9598;50.954;3.112;2024-01-06T02:44:46;4.75;;;1.45;;
18931;SDS011;9598;50.954;3.112;2024-01-06T02:49:48;4.80;;;2.05;;
18931;SDS011;9598;50.954;3.112;2024-01-06T02:54:52;3.83;;;1.80;;
18931;SDS011;9598;50.954;3.112;2024-01-06T02:59:54;3.28;;;1.30;;
18931;SDS011;9598;50.954;3.112;2024-01-06T03:04:56;3.00;;;1.52;;
18931;SDS011;9598;50.954;3.112;2024-01-06T03:09:59;2.95;;;1.45;;
18931;SDS011;9598;50.954;3.112;2024-01-06T03:15:02;5.68;;;2.00;;
18931;SDS011;9598;50.954;3.112;2024-01-06T03:20:04;4.28;;;1.50;;
18931;SDS011;9598;50.954;3.112;2024-01-06T03:25:09;3.67;;;1.58;;
18931;SDS011;9598;50.954;3.112;2024-01-06T03:30:11;6.50;;;1.73;;
18931;SDS011;9598;50.954;3.112;2024-01-06T03:35:14;2.38;;;1.42;;
18931;SDS011;9598;50.954;3.112;2024-01-06T03:40:18;4.25;;;1.15;;
18931;SDS011;9598;50.954;3.112;2024-01-06T03:45:20;5.22;;;1.50;;
18931;SDS011;9598;50.954;3.112;2024-01-06T03:50:22;5.10;;;1.27;;
18931;SDS011;9598;50.954;3.112;2024-01-06T03:55:25;2.85;;;1.40;;
18931;SDS011;9598;50.954;3.112;2024-01-06T04:00:27;2.30;;;1.17;;
18931;SDS011;9598;50.954;3.112;2024-01-06T04:05:29;3.10;;;1.23;;
18931;SDS011;9598;50.954;3.112;2024-01-06T04:10:33;5.72;;;1.60;;
18931;SDS011;9598;50.954;3.112;2024-01-06T04:15:35;3.53;;;1.20;;
18931;SDS011;9598;50.954;3.112;2024-01-06T04:20:37;2.88;;;1.10;;
18931;SDS011;9598;50.954;3.112;2024-01-06T04:25:40;4.22;;;1.40;;
18931;SDS011;9598;50.954;3.112;2024-01-06T04:30:43;3.17;;;1.48;;
18931;SDS011;9598;50.954;3.112;2024-01-06T04:35:45;2.00;;;1.40;;
18931;SDS011;9598;50.954;3.112;2024-01-06T04:40:48;7.72;;;1.38;;
18931;SDS011;9598;50.954;3.112;2024-01-06T04:45:50;2.45;;;1.40;;
18931;SDS011;9598;50.954;3.112;2024-01-06T04:50:52;5.25;;;1.33;;
18931;SDS011;9598;50.954;3.112;2024-01-06T04:55:56;3.60;;;1.20;;
18931;SDS011;9598;50.954;3.112;2024-01-06T05:00:58;2.88;;;1.00;;
18931;SDS011;9598;50.954;3.112;2024-01-06T05:06:00;2.92;;;1.10;;
18931;SDS011;9598;50.954;3.112;2024-01-06T05:11:05;2.53;;;1.42;;
18931;SDS011;9598;50.954;3.112;2024-01-06T05:16:07;1.60;;;1.02;;
18931;SDS011;9598;50.954;3.112;2024-01-06T05:21:10;1.30;;;1.08;;
18931;SDS011;9598;50.954;3.112;2024-01-06T05:26:13;3.58;;;0.88;;
18931;SDS011;9598;50.954;3.112;2024-01-06T05:31:15;3.85;;;0.93;;
18931;SDS011;9598;50.954;3.112;2024-01-06T05:36:18;7.40;;;1.70;;
18931;SDS011;9598;50.954;3.112;2024-01-06T05:41:22;6.05;;;1.67;;
18931;SDS011;9598;50.954;3.112;2024-01-06T05:46:25;1.50;;;1.27;;
18931;SDS011;9598;50.954;3.112;2024-01-06T05:51:27;2.80;;;1.30;;
18931;SDS011;9598;50.954;3.112;2024-01-06T05:56:30;2.50;;;1.20;;
18931;SDS011;9598;50.954;3.112;2024-01-06T06:01:32;2.90;;;1.20;;
18931;SDS011;9598;50.954;3.112;2024-01-06T06:06:34;4.10;;;1.30;;
18931;SDS011;9598;50.954;3.112;2024-01-06T06:11:39;5.35;;;1.42;;
18931;SDS011;9598;50.954;3.112;2024-01-06T06:16:41;2.97;;;1.30;;
18931;SDS011;9598;50.954;3.112;2024-01-06T06:21:43;2.08;;;1.00;;
18931;SDS011;9598;50.954;3.112;2024-01-06T06:26:46;1.95;;;1.00;;
18931;SDS011;9598;50.954;3.112;2024-01-06T06:31:48;2.03;;;1.20;;
18931;SDS011;9598;50.954;3.112;2024-01-06T06:36:51;1.73;;;1.55;;
18931;SDS011;9598;50.954;3.112;2024-01-06T06:41:54;2.90;;;1.30;;
18931;SDS011;9598;50.954;3.112;2024-01-06T06:46:56;2.92;;;1.23;;
18931;SDS011;9598;50.954;3.112;2024-01-06T06:51:58;4.05;;;2.30;;
18931;SDS011;9598;50.954;3.112;2024-01-06T06:57:02;3.65;;;1.58;;
18931;SDS011;9598;50.954;3.112;2024-01-06T07:02:04;5.78;;;1.65;;
18931;SDS011;9598;50.954;3.112;2024-01-06T07:07:07;2.92;;;1.52;;
18931;SDS011;9598;50.954;3.112;2024-01-06T07:12:11;2.92;;;1.30;;
18931;SDS011;9598;50.954;3.112;2024-01-06T07:17:13;4.38;;;1.58;;
18931;SDS011;9598;50.954;3.112;2024-01-06T07:22:15;2.55;;;1.58;;
18931;SDS011;9598;50.954;3.112;2024-01-06T07:27:19;4.03;;;1.60;;
18931;SDS011;9598;50.954;3.112;2024-01-06T07:32:22;3.05;;;1.60;;
18931;SDS011;9598;50.954;3.112;2024-01-06T07:37:24;2.08;;;1.35;;
18931;SDS011;9598;50.954;3.112;2024-01-06T07:42:28;4.32;;;2.00;;
18931;SDS011;9598;50.954;3.112;2024-01-06T07:47:30;2.88;;;1.80;;
18931;SDS011;9598;50.954;3.112;2024-01-06T07:52:32;5.72;;;2.05;;
18931;SDS011;9598;50.954;3.112;2024-01-06T07:57:36;3.38;;;1.83;;
18931;SDS011;9598;50.954;3.112;2024-01-06T08:02:38;6.22;;;2.75;;
18931;SDS011;9598;50.954;3.112;2024-01-06T08:07:40;4.10;;;1.92;;
18931;SDS011;9598;50.954;3.112;2024-01-06T08:12:43;2.70;;;2.33;;
18931;SDS011;9598;50.954;3.112;2024-01-06T08:17:45;4.40;;;2.72;;
18931;SDS011;9598;50.954;3.112;2024-01-06T08:22:47;8.63;;;3.83;;
18931;SDS011;9598;50.954;3.112;2024-01-06T08:27:51;4.00;;;2.72;;
18931;SDS011;9598;50.954;3.112;2024-01-06T08:32:53;4.43;;;3.03;;
18931;SDS011;9598;50.954;3.112;2024-01-06T08:37:55;8.52;;;4.78;;
18931;SDS011;9598;50.954;3.112;2024-01-06T08:42:58;9.07;;;4.65;;
18931;SDS011;9598;50.954;3.112;2024-01-06T08:48:00;5.03;;;2.60;;
18931;SDS011;9598;50.954;3.112;2024-01-06T08:53:03;6.25;;;2.80;;
18931;SDS011;9598;50.954;3.112;2024-01-06T08:58:07;2.60;;;1.92;;
18931;SDS011;9598;50.954;3.112;2024-01-06T09:03:09;6.22;;;1.98;;
18931;SDS011;9598;50.954;3.112;2024-01-06T09:08:12;5.97;;;2.10;;
18931;SDS011;9598;50.954;3.112;2024-01-06T09:13:16;4.95;;;2.22;;
18931;SDS011;9598;50.954;3.112;2024-01-06T09:18:18;3.40;;;1.65;;
18931;SDS011;9598;50.954;3.112;2024-01-06T09:23:20;2.38;;;1.88;;
18931;SDS011;9598;50.954;3.112;2024-01-06T09:28:23;3.47;;;1.52;;
18931;SDS011;9598;50.954;3.112;2024-01-06T09:33:25;2.97;;;1.50;;
18931;SDS011;9598;50.954;3.112;2024-01-06T09:38:28;3.20;;;1.73;;
18931;SDS011;9598;50.954;3.112;2024-01-06T09:43:32;7.00;;;2.10;;
18931;SDS011;9598;50.954;3.112;2024-01-06T09:48:35;1.70;;;1.48;;
18931;SDS011;9598;50.954;3.112;2024-01-06T09:53:43;1.42;;;1.33;;
18931;SDS011;9598;50.954;3.112;2024-01-06T09:58:51;3.20;;;1.48;;
18931;SDS011;9598;50.954;3.112;2024-01-06T10:03:53;2.17;;;1.80;;
18931;SDS011;9598;50.954;3.112;2024-01-06T10:08:55;2.65;;;1.67;;
18931;SDS011;9598;50.954;3.112;2024-01-06T10:13:58;3.15;;;1.50;;
18931;SDS011;9598;50.954;3.112;2024-01-06T10:19:01;2.85;;;1.90;;
18931;SDS011;9598;50.954;3.112;2024-01-06T10:24:05;1.45;;;1.35;;
18931;SDS011;9598;50.954;3.112;2024-01-06T10:29:10;3.55;;;1.70;;
18931;SDS011;9598;50.954;3.112;2024-01-06T10:34:14;2.85;;;1.60;;
18931;SDS011;9598;50.954;3.112;2024-01-06T10:39:16;3.60;;;1.80;;
18931;SDS011;9598;50.954;3.112;2024-01-06T10:44:21;3.72;;;2.17;;
18931;SDS011;9598;50.954;3.112;2024-01-06T10:49:24;7.43;;;3.10;;
18931;SDS011;9598;50.954;3.112;2024-01-06T10:54:28;4.35;;;1.90;;
18931;SDS011;9598;50.954;3.112;2024-01-06T10:59:31;3.33;;;2.08;;
18931;SDS011;9598;50.954;3.112;2024-01-06T11:04:35;3.45;;;2.00;;
18931;SDS011;9598;50.954;3.112;2024-01-06T11:09:39;5.07;;;4.35;;
18931;SDS011;9598;50.954;3.112;2024-01-06T11:14:49;7.95;;;5.57;;
18931;SDS011;9598;50.954;3.112;2024-01-06T11:19:51;4.65;;;2.60;;
18931;SDS011;9598;50.954;3.112;2024-01-06T11:24:55;4.18;;;3.00;;
18931;SDS011;9598;50.954;3.112;2024-01-06T11:30:07;6.50;;;3.05;;
18931;SDS011;9598;50.954;3.112;2024-01-06T11:35:20;4.40;;;3.15;;
18931;SDS011;9598;50.954;3.112;2024-01-06T11:40:24;4.03;;;3.03;;
18931;SDS011;9598;50.954;3.112;2024-01-06T11:45:34;5.30;;;3.33;;
18931;SDS011;9598;50.954;3.112;2024-01-06T11:50:37;4.63;;;2.90;;
18931;SDS011;9598;50.954;3.112;2024-01-06T11:55:40;3.67;;;2.65;;
18931;SDS011;9598;50.954;3.112;2024-01-06T12:00:44;6.15;;;3.85;;
18931;SDS011;9598;50.954;3.112;2024-01-06T12:06:00;7.30;;;4.45;;
18931;SDS011;9598;50.954;3.112;2024-01-06T12:11:02;5.38;;;4.13;;
18931;SDS011;9598;50.954;3.112;2024-01-06T12:16:07;5.97;;;4.10;;
18931;SDS011;9598;50.954;3.112;2024-01-06T12:21:09;5.50;;;4.13;;
18931;SDS011;9598;50.954;3.112;2024-01-06T12:26:11;4.28;;;3.58;;
18931;SDS011;9598;50.954;3.112;2024-01-06T12:31:15;6.28;;;3.60;;
18931;SDS011;9598;50.954;3.112;2024-01-06T12:36:19;6.18;;;3.60;;
18931;SDS011;9598;50.954;3.112;2024-01-06T12:41:21;8.75;;;5.35;;
18931;SDS011;9598;50.954;3.112;2024-01-06T12:46:25;11.63;;;8.68;;
18931;SDS011;9598;50.954;3.112;2024-01-06T12:51:27;8.30;;;4.05;;
18931;SDS011;9598;50.954;3.112;2024-01-06T12:56:29;6.00;;;3.88;;
18931;SDS011;9598;50.954;3.112;2024-01-06T13:01:33;6.30;;;4.68;;
18931;SDS011;9598;50.954;3.112;2024-01-06T13:06:35;6.10;;;3.97;;
18931;SDS011;9598;50.954;3.112;2024-01-06T13:11:38;5.80;;;3.50;;
18931;SDS011;9598;50.954;3.112;2024-01-06T13:16:41;8.20;;;3.88;;
18931;SDS011;9598;50.954;3.112;2024-01-06T13:21:43;4.75;;;3.33;;
18931;SDS011;9598;50.954;3.112;2024-01-06T13:26:45;6.50;;;3.13;;
18931;SDS011;9598;50.954;3.112;2024-01-06T13:31:49;3.80;;;2.72;;
18931;SDS011;9598;50.954;3.112;2024-01-06T13:36:52;5.53;;;3.08;;
18931;SDS011;9598;50.954;3.112;2024-01-06T13:41:54;7.35;;;2.60;;
18931;SDS011;9598;50.954;3.112;2024-01-06T13:46:58;5.20;;;2.70;;
18931;SDS011;9598;50.954;3.112;2024-01-06T13:52:00;3.17;;;2.47;;
18931;SDS011;9598;50.954;3.112;2024-01-06T13:57:03;5.90;;;2.60;;
18931;SDS011;9598;50.954;3.112;2024-01-06T14:02:07;2.95;;;2.17;;
18931;SDS011;9598;50.954;3.112;2024-01-06T14:07:09;3.47;;;2.67;;
18931;SDS011;9598;50.954;3.112;2024-01-06T14:12:11;4.53;;;2.25;;
18931;SDS011;9598;50.954;3.112;2024-01-06T14:17:15;3.50;;;2.45;;
18931;SDS011;9598;50.954;3.112;2024-01-06T14:22:17;6.10;;;2.53;;
18931;SDS011;9598;50.954;3.112;2024-01-06T14:27:19;4.85;;;3.03;;
18931;SDS011;9598;50.954;3.112;2024-01-06T14:32:24;5.32;;;3.63;;
18931;SDS011;9598;50.954;3.112;2024-01-06T14:37:26;5.90;;;3.72;;
18931;SDS011;9598;50.954;3.112;2024-01-06T14:42:28;6.25;;;4.03;;
18931;SDS011;9598;50.954;3.112;2024-01-06T14:47:31;5.43;;;4.22;;
18931;SDS011;9598;50.954;3.112;2024-01-06T14:52:33;5.93;;;5.43;;
18931;SDS011;9598;50.954;3.112;2024-01-06T14:57:36;5.75;;;3.80;;
18931;SDS011;9598;50.954;3.112;2024-01-06T15:02:39;5.82;;;3.13;;
18931;SDS011;9598;50.954;3.112;2024-01-06T15:07:41;4.45;;;3.42;;
18931;SDS011;9598;50.954;3.112;2024-01-06T15:12:43;4.65;;;3.20;;
18931;SDS011;9598;50.954;3.112;2024-01-06T15:17:47;5.32;;;3.20;;
18931;SDS011;9598;50.954;3.112;2024-01-06T15:22:49;3.70;;;3.17;;
18931;SDS011;9598;50.954;3.112;2024-01-06T15:27:51;3.83;;;2.63;;
18931;SDS011;9598;50.954;3.112;2024-01-06T15:32:55;5.97;;;2.83;;
18931;SDS011;9598;50.954;3.112;2024-01-06T15:37:57;3.47;;;2.55;;
18931;SDS011;9598;50.954;3.112;2024-01-06T15:42:59;2.72;;;2.10;;
18931;SDS011;9598;50.954;3.112;2024-01-06T15:48:02;4.35;;;2.75;;
18931;SDS011;9598;50.954;3.112;2024-01-06T15:53:05;8.77;;;2.67;;
18931;SDS011;9598;50.954;3.112;2024-01-06T15:58:07;3.90;;;2.90;;
18931;SDS011;9598;50.954;3.112;2024-01-06T16:03:11;10.70;;;4.95;;
18931;SDS011;9598;50.954;3.112;2024-01-06T16:08:13;7.07;;;4.00;;
18931;SDS011;9598;50.954;3.112;2024-01-06T16:13:15;5.88;;;3.85;;
18931;SDS011;9598;50.954;3.112;2024-01-06T16:18:19;7.82;;;4.72;;
18931;SDS011;9598;50.954;3.112;2024-01-06T16:23:22;6.05;;;3.28;;
18931;SDS011;9598;50.954;3.112;2024-01-06T16:28:25;6.53;;;4.10;;
18931;SDS011;9598;50.954;3.112;2024-01-06T16:33:28;7.60;;;3.40;;
18931;SDS011;9598;50.954;3.112;2024-01-06T16:38:31;5.05;;;3.08;;
18931;SDS011;9598;50.954;3.112;2024-01-06T16:43:34;4.07;;;2.90;;
18931;SDS011;9598;50.954;3.112;2024-01-06T16:48:40;3.88;;;3.05;;
18931;SDS011;9598;50.954;3.112;2024-01-06T16:53:42;5.90;;;3.00;;
18931;SDS011;9598;50.954;3.112;2024-01-06T16:58:44;5.55;;;3.13;;
18931;SDS011;9598;50.954;3.112;2024-01-06T17:03:47;4.25;;;2.60;;
18931;SDS011;9598;50.954;3.112;2024-01-06T17:08:49;4.45;;;3.42;;
18931;SDS011;9598;50.954;3.112;2024-01-06T17:13:52;4.85;;;3.40;;
18931;SDS011;9598;50.954;3.112;2024-01-06T17:18:55;3.72;;;3.22;;
18931;SDS011;9598;50.954;3.112;2024-01-06T17:23:57;5.20;;;3.63;;
18931;SDS011;9598;50.954;3.112;2024-01-06T17:28:59;4.50;;;3.67;;
18931;SDS011;9598;50.954;3.112;2024-01-06T17:34:03;7.57;;;6.60;;
18931;SDS011;9598;50.954;3.112;2024-01-06T17:39:05;16.52;;;14.30;;
18931;SDS011;9598;50.954;3.112;2024-01-06T17:44:07;8.48;;;6.53;;
18931;SDS011;9598;50.954;3.112;2024-01-06T17:49:11;9.65;;;6.78;;
18931;SDS011;9598;50.954;3.112;2024-01-06T17:54:13;6.72;;;5.40;;
18931;SDS011;9598;50.954;3.112;2024-01-06T17:59:15;7.30;;;5.50;;
18931;SDS011;9598;50.954;3.112;2024-01-06T18:04:18;5.53;;;4.65;;
18931;SDS011;9598;50.954;3.112;2024-01-06T18:09:21;7.05;;;6.13;;
18931;SDS011;9598;50.954;3.112;2024-01-06T18:14:23;9.32;;;7.22;;
18931;SDS011;9598;50.954;3.112;2024-01-06T18:19:27;7.15;;;6.15;;
18931;SDS011;9598;50.954;3.112;2024-01-06T18:24:29;8.02;;;7.15;;
18931;SDS011;9598;50.954;3.112;2024-01-06T18:29:31;10.68;;;8.60;;
18931;SDS011;9598;50.954;3.112;2024-01-06T18:34:35;11.63;;;10.35;;
18931;SDS011;9598;50.954;3.112;2024-01-06T18:39:37;10.75;;;9.02;;
18931;SDS011;9598;50.954;3.112;2024-01-06T18:44:39;9.45;;;8.02;;
18931;SDS011;9598;50.954;3.112;2024-01-06T18:49:43;14.23;;;11.57;;
18931;SDS011;9598;50.954;3.112;2024-01-06T18:54:45;28.65;;;20.90;;
18931;SDS011;9598;50.954;3.112;2024-01-06T18:59:47;22.42;;;17.27;;
18931;SDS011;9598;50.954;3.112;2024-01-06T19:04:52;10.52;;;7.25;;
18931;SDS011;9598;50.954;3.112;2024-01-06T19:09:54;8.98;;;5.55;;
18931;SDS011;9598;50.954;3.112;2024-01-06T19:14:56;7.50;;;4.82;;
18931;SDS011;9598;50.954;3.112;2024-01-06T19:20:00;8.25;;;5.20;;
18931;SDS011;9598;50.954;3.112;2024-01-06T19:25:04;7.60;;;4.50;;
18931;SDS011;9598;50.954;3.112;2024-01-06T19:30:07;6.70;;;3.67;;
18931;SDS011;9598;50.954;3.112;2024-01-06T19:35:14;4.30;;;3.83;;
18931;SDS011;9598;50.954;3.112;2024-01-06T19:40:16;5.50;;;4.20;;
18931;SDS011;9598;50.954;3.112;2024-01-06T19:45:18;2.67;;;2.25;;
18931;SDS011;9598;50.954;3.112;2024-01-06T19:50:22;6.05;;;2.65;;
18931;SDS011;9598;50.954;3.112;2024-01-06T19:55:25;2.78;;;2.17;;
18931;SDS011;9598;50.954;3.112;2024-01-06T20:00:28;3.75;;;2.70;;
18931;SDS011;9598;50.954;3.112;2024-01-06T20:05:32;3.47;;;2.70;;
18931;SDS011;9598;50.954;3.112;2024-01-06T20:10:35;4.18;;;3.60;;
18931;SDS011;9598;50.954;3.112;2024-01-06T20:15:37;5.72;;;4.47;;
18931;SDS011;9598;50.954;3.112;2024-01-06T20:20:41;6.65;;;4.63;;
18931;SDS011;9598;50.954;3.112;2024-01-06T20:25:43;4.43;;;4.03;;
18931;SDS011;9598;50.954;3.112;2024-01-06T20:30:45;4.38;;;3.38;;
18931;SDS011;9598;50.954;3.112;2024-01-06T20:35:49;5.70;;;3.42;;
18931;SDS011;9598;50.954;3.112;2024-01-06T20:40:51;4.95;;;3.78;;
18931;SDS011;9598;50.954;3.112;2024-01-06T20:45:53;4.95;;;4.55;;
18931;SDS011;9598;50.954;3.112;2024-01-06T20:50:57;10.55;;;8.38;;
18931;SDS011;9598;50.954;3.112;2024-01-06T20:56:01;9.25;;;6.35;;
18931;SDS011;9598;50.954;3.112;2024-01-06T21:01:03;7.65;;;4.72;;
18931;SDS011;9598;50.954;3.112;2024-01-06T21:06:09;4.22;;;3.90;;
18931;SDS011;9598;50.954;3.112;2024-01-06T21:11:11;6.10;;;4.20;;
18931;SDS011;9598;50.954;3.112;2024-01-06T21:16:13;4.28;;;3.83;;
18931;SDS011;9598;50.954;3.112;2024-01-06T21:21:18;3.67;;;3.30;;
18931;SDS011;9598;50.954;3.112;2024-01-06T21:26:20;4.53;;;2.85;;
18931;SDS011;9598;50.954;3.112;2024-01-06T21:31:22;5.38;;;2.88;;
18931;SDS011;9598;50.954;3.112;2024-01-06T21:36:27;4.53;;;3.50;;
18931;SDS011;9598;50.954;3.112;2024-01-06T21:41:29;6.05;;;3.45;;
18931;SDS011;9598;50.954;3.112;2024-01-06T21:46:31;3.75;;;3.10;;
18931;SDS011;9598;50.954;3.112;2024-01-06T21:51:34;5.05;;;2.97;;
18931;SDS011;9598;50.954;3.112;2024-01-06T21:56:47;4.50;;;3.05;;
18931;SDS011;9598;50.954;3.112;2024-01-06T22:01:49;6.45;;;3.33;;
18931;SDS011;9598;50.954;3.112;2024-01-06T22:06:53;4.32;;;2.97;;
18931;SDS011;9598;50.954;3.112;2024-01-06T22:11:55;3.25;;;2.67;;
18931;SDS011;9598;50.954;3.112;2024-01-06T22:16:57;2.97;;;2.75;;
18931;SDS011;9598;50.954;3.112;2024-01-06T22:22:01;3.17;;;2.90;;
18931;SDS011;9598;50.954;3.112;2024-01-06T22:27:03;5.82;;;3.33;;
18931;SDS011;9598;50.954;3.112;2024-01-06T22:32:06;2.78;;;1.90;;
18931;SDS011;9598;50.954;3.112;2024-01-06T22:37:09;2.45;;;1.60;;
18931;SDS011;9598;50.954;3.112;2024-01-06T22:42:12;3.03;;;1.90;;
18931;SDS011;9598;50.954;3.112;2024-01-06T22:47:14;2.17;;;2.00;;
18931;SDS011;9598;50.954;3.112;2024-01-06T22:52:17;2.70;;;2.45;;
18931;SDS011;9598;50.954;3.112;2024-01-06T22:57:19;2.33;;;2.13;;
18931;SDS011;9598;50.954;3.112;2024-01-06T23:02:22;3.38;;;2.45;;
18931;SDS011;9598;50.954;3.112;2024-01-06T23:07:25;4.07;;;2.72;;
18931;SDS011;9598;50.954;3.112;2024-01-06T23:12:28;5.63;;;2.50;;
18931;SDS011;9598;50.954;3.112;2024-01-06T23:17:30;3.95;;;2.55;;
18931;SDS011;9598;50.954;3.112;2024-01-06T23:22:33;4.20;;;2.10;;
18931;SDS011;9598;50.954;3.112;2024-01-06T23:27:35;2.85;;;2.45;;
18931;SDS011;9598;50.954;3.112;2024-01-06T23:32:39;3.70;;;3.13;;
18931;SDS011;9598;50.954;3.112;2024-01-06T23:37:42;2.70;;;2.42;;
18931;SDS011;9598;50.954;3.112;2024-01-06T23:42:48;3.92;;;2.90;;
18931;SDS011;9598;50.954;3.112;2024-01-06T23:47:50;4.60;;;3.30;;
18931;SDS011;9598;50.954;3.112;2024-01-06T23:52:54;5.72;;;4.15;;
18931;SDS011;9598;50.954;3.112;2024-01-06T23:57:56;5.18;;;3.78;;
